Burlington, New York
Current Conditions -  °F | °C
As of 8:53 AM on Saturday 20 Dec 2014 (Local Time) from KRME Reporting Station
Overcast Overcast  
Wind Chill: 12°   Ceiling: 1700
Heat Index: 20°   Visibility: 10mi
Dew Point: 16°   Wind: 6mph
Humidity: 85%   Direction: 100°E
Pressure: 30.32"   Gusts: NA
Location:  42.7477°N, 75.1584°W
Report Text: KRME 201353Z 10005KT 10SM OVC017 M07/M09 A3032 RMK AO2 SLP276 T10671089
Loading
Personal Weather Stations






























Interactive Weather Map New forecast layout! Learn more

10-Day Weather Forecast

Advertisements
Track Severe Weather on mobile